createdAt,value
2022-09-02T00:02:03.310Z,13.68
2022-09-02T00:05:05.453Z,13.62
2022-09-02T00:08:08.190Z,13.60
2022-09-02T00:11:18.094Z,13.55
2022-09-02T00:14:27.069Z,13.52
2022-09-02T00:17:29.109Z,13.49
2022-09-02T00:20:31.331Z,13.44
2022-09-02T00:23:33.535Z,13.43
2022-09-02T00:26:35.943Z,13.41
2022-09-02T00:29:39.707Z,13.40
2022-09-02T00:32:41.749Z,13.42
2022-09-02T00:35:43.987Z,13.43
2022-09-02T00:38:45.917Z,13.44
2022-09-02T00:41:47.572Z,13.48
2022-09-02T00:44:49.683Z,13.47
2022-09-02T00:47:51.910Z,13.49
2022-09-02T00:50:53.727Z,13.48
2022-09-02T00:53:56.072Z,13.52
2022-09-02T00:57:00.237Z,13.50
2022-09-02T01:00:16.577Z,13.50
2022-09-02T01:03:21.274Z,13.49
2022-09-02T01:06:25.604Z,13.49
2022-09-02T01:09:27.331Z,13.47
2022-09-02T01:12:31.126Z,13.43
2022-09-02T01:15:36.497Z,13.44
2022-09-02T01:18:39.502Z,13.41
2022-09-02T01:21:46.712Z,13.36
2022-09-02T01:24:48.529Z,13.35
2022-09-02T01:27:50.655Z,13.34
2022-09-02T01:30:54.826Z,13.32
2022-09-02T01:33:58.063Z,13.31
2022-09-02T01:36:59.849Z,13.31
2022-09-02T01:40:01.802Z,13.29
2022-09-02T01:43:10.859Z,13.30
2022-09-02T01:46:12.709Z,13.23
2022-09-02T01:49:14.595Z,13.26
2022-09-02T01:52:18.200Z,13.25
2022-09-02T01:55:21.031Z,13.22
2022-09-02T01:58:25.454Z,13.16
2022-09-02T02:01:27.371Z,13.18
2022-09-02T02:04:29.185Z,13.15
2022-09-02T02:07:31.990Z,13.15
2022-09-02T02:10:33.745Z,13.13
2022-09-02T02:13:36.612Z,13.10
2022-09-02T02:16:38.967Z,13.07
2022-09-02T02:19:41.252Z,13.04
2022-09-02T02:22:43.631Z,13.03
2022-09-02T02:25:45.495Z,13.05
2022-09-02T02:28:47.255Z,13.00
2022-09-02T02:31:49.415Z,12.96
2022-09-02T02:34:52.319Z,12.96
2022-09-02T02:37:54.873Z,12.91
2022-09-02T02:40:58.233Z,12.87
2022-09-02T02:44:00.515Z,12.85
2022-09-02T02:47:03.138Z,12.81
2022-09-02T02:50:06.970Z,12.81
2022-09-02T02:53:09.239Z,12.77
2022-09-02T02:56:15.546Z,12.76
2022-09-02T02:59:17.251Z,12.73
2022-09-02T03:02:19.055Z,12.69
2022-09-02T03:05:22.100Z,12.69
2022-09-02T03:08:25.774Z,12.67
2022-09-02T03:11:28.567Z,12.63
2022-09-02T03:14:32.346Z,12.61
2022-09-02T03:17:35.095Z,12.59
2022-09-02T03:20:36.860Z,12.56
2022-09-02T03:23:41.679Z,12.51
2022-09-02T03:26:44.070Z,12.50
2022-09-02T03:29:46.911Z,12.48
2022-09-02T03:32:50.758Z,12.43
2022-09-02T03:35:52.699Z,12.43
2022-09-02T03:38:55.978Z,12.41
2022-09-02T03:41:57.975Z,12.39
2022-09-02T03:45:01.883Z,12.38
2022-09-02T03:48:04.543Z,12.37
2022-09-02T03:51:12.206Z,12.35
2022-09-02T03:54:14.118Z,12.32
2022-09-02T03:57:16.900Z,12.31
2022-09-02T04:00:23.002Z,12.28
2022-09-02T04:03:25.609Z,12.22
2022-09-02T04:06:32.656Z,12.20
2022-09-02T04:09:36.515Z,12.16
2022-09-02T04:12:38.968Z,12.16
2022-09-02T04:15:48.234Z,12.11
2022-09-02T04:18:51.332Z,12.08
2022-09-02T04:21:53.155Z,12.06
2022-09-02T04:29:42.487Z,12.00
2022-09-02T04:32:46.079Z,12.00
2022-09-02T04:35:49.563Z,11.96
2022-09-02T04:38:54.352Z,11.94
2022-09-02T04:41:59.296Z,11.93
2022-09-02T04:45:01.565Z,11.91
2022-09-02T04:48:04.321Z,11.93
2022-09-02T04:51:08.497Z,11.92
2022-09-02T04:54:10.742Z,11.89
2022-09-02T05:02:51.786Z,11.90
2022-09-02T05:06:01.689Z,11.90
2022-09-02T05:13:51.581Z,11.86
2022-09-02T05:16:55.797Z,11.89
2022-09-02T05:19:58.120Z,11.94
2022-09-02T05:22:59.807Z,11.97
2022-09-02T05:26:06.203Z,11.99
2022-09-02T05:29:08.341Z,12.01
2022-09-02T05:32:12.563Z,12.06
2022-09-02T05:35:15.086Z,12.07
2022-09-02T05:38:18.228Z,12.13
2022-09-02T05:41:24.145Z,12.10
2022-09-02T05:44:31.175Z,12.20
2022-09-02T05:47:35.302Z,12.23
2022-09-02T05:50:37.682Z,12.18
2022-09-02T05:53:40.158Z,12.25
2022-09-02T05:56:44.862Z,12.35
2022-09-02T05:59:55.911Z,12.35
2022-09-02T06:03:01.545Z,12.44
2022-09-02T06:06:09.452Z,12.50
2022-09-02T06:09:19.896Z,12.54
2022-09-02T06:12:23.206Z,12.60
2022-09-02T06:15:28.445Z,12.64
2022-09-02T06:18:30.572Z,12.73
2022-09-02T06:21:33.838Z,12.77
2022-09-02T06:24:35.517Z,12.82
2022-09-02T06:27:42.871Z,12.88
2022-09-02T06:30:47.309Z,12.95
2022-09-02T06:33:55.860Z,13.01
2022-09-02T06:36:59.099Z,13.08
2022-09-02T06:40:01.756Z,13.16
2022-09-02T06:43:05.600Z,13.23
2022-09-02T06:46:25.257Z,13.31
2022-09-02T06:49:29.964Z,13.40
2022-09-02T06:52:34.490Z,13.48
2022-09-02T06:55:39.048Z,13.54
2022-09-02T06:58:41.396Z,13.62
2022-09-02T07:01:46.590Z,13.70
2022-09-02T07:05:09.769Z,13.78
2022-09-02T07:08:11.874Z,13.88
2022-09-02T07:11:18.722Z,13.96
2022-09-02T07:14:24.376Z,14.03
2022-09-02T07:17:29.609Z,14.10
2022-09-02T07:20:36.462Z,14.17
2022-09-02T07:23:41.158Z,14.25
2022-09-02T07:26:45.544Z,14.31
2022-09-02T07:29:49.368Z,14.38
2022-09-02T07:32:52.515Z,14.48
2022-09-02T07:35:57.035Z,14.56
2022-09-02T07:39:00.862Z,14.64
2022-09-02T07:42:04.537Z,14.72
2022-09-02T07:45:12.994Z,14.82
2022-09-02T07:48:16.711Z,14.90
2022-09-02T07:51:20.112Z,14.92
2022-09-02T07:54:26.830Z,15.09
2022-09-02T07:57:29.439Z,15.17
2022-09-02T08:00:31.406Z,15.27
2022-09-02T08:03:41.676Z,15.34
2022-09-02T08:06:44.976Z,15.42
2022-09-02T08:09:46.646Z,15.51
2022-09-02T08:12:48.437Z,15.58
2022-09-02T08:15:50.630Z,15.66
2022-09-02T08:18:52.657Z,15.72
2022-09-02T08:21:55.309Z,15.82
2022-09-02T08:24:56.954Z,15.89
2022-09-02T08:27:59.161Z,15.95
2022-09-02T08:31:05.743Z,15.94
2022-09-02T08:34:08.731Z,16.01
2022-09-02T08:37:10.564Z,16.12
2022-09-02T08:40:24.923Z,16.16
2022-09-02T08:43:37.442Z,16.24
2022-09-02T08:46:39.558Z,16.34
2022-09-02T08:49:50.059Z,16.46
2022-09-02T08:53:03.800Z,16.65
2022-09-02T08:56:09.897Z,16.70
2022-09-02T08:59:15.221Z,16.95
2022-09-02T09:02:56.661Z,17.22
2022-09-02T09:06:13.620Z,17.37
2022-09-02T09:09:24.720Z,17.43
2022-09-02T09:13:03.904Z,17.54
2022-09-02T09:16:11.911Z,17.61
2022-09-02T09:19:22.381Z,17.75
2022-09-02T09:22:37.385Z,17.79
2022-09-02T09:25:39.387Z,17.91
2022-09-02T09:28:43.540Z,18.02
2022-09-02T09:31:53.343Z,18.08
2022-09-02T09:35:03.006Z,18.15
2022-09-02T09:38:13.165Z,18.18
2022-09-02T09:41:20.600Z,18.28
2022-09-02T09:44:42.136Z,18.34
2022-09-02T09:47:43.844Z,18.36
2022-09-02T09:50:47.880Z,18.42
2022-09-02T09:53:50.075Z,18.45
2022-09-02T09:56:52.850Z,18.48
2022-09-02T09:59:57.160Z,18.65
2022-09-02T10:03:03.557Z,18.67
2022-09-02T10:06:23.469Z,18.70
2022-09-02T10:09:32.572Z,18.75
2022-09-02T10:12:34.305Z,18.79
2022-09-02T10:15:54.196Z,18.96
2022-09-02T10:19:15.462Z,18.91
2022-09-02T10:22:38.435Z,18.96
2022-09-02T10:25:59.865Z,19.06
2022-09-02T10:29:05.036Z,19.08
2022-09-02T10:32:12.814Z,19.06
2022-09-02T10:35:36.315Z,19.00
2022-09-02T10:38:43.492Z,19.10
2022-09-02T10:41:47.256Z,19.17
2022-09-02T10:45:01.495Z,19.29
2022-09-02T10:48:09.487Z,19.23
2022-09-02T10:51:38.518Z,19.35
2022-09-02T10:55:04.458Z,19.44
2022-09-02T10:58:22.302Z,19.46
2022-09-02T11:01:46.747Z,19.63
2022-09-02T11:04:55.010Z,19.67
2022-09-02T11:08:11.033Z,19.65
2022-09-02T11:11:21.727Z,19.63
2022-09-02T11:14:32.994Z,19.65
2022-09-02T11:17:58.953Z,19.62
2022-09-02T11:21:12.740Z,19.63
2022-09-02T11:24:30.893Z,19.72
2022-09-02T11:27:48.079Z,19.70
2022-09-02T11:30:58.023Z,19.80
2022-09-02T11:34:20.282Z,19.82
2022-09-02T11:37:29.997Z,19.88
2022-09-02T11:44:53.268Z,19.93
2022-09-02T11:47:55.952Z,19.92
2022-09-02T11:51:28.304Z,20.02
2022-09-02T11:54:36.601Z,20.10
2022-09-02T11:57:41.332Z,20.15
2022-09-02T12:01:15.254Z,20.11
2022-09-02T12:07:50.219Z,20.27
2022-09-02T12:10:51.806Z,20.25
2022-09-02T12:13:53.715Z,20.35
2022-09-02T12:17:04.711Z,20.48
2022-09-02T12:20:09.662Z,20.46
2022-09-02T12:23:48.697Z,20.51
2022-09-02T12:26:53.529Z,20.50
2022-09-02T12:29:56.622Z,20.47
2022-09-02T12:33:05.083Z,20.60
2022-09-02T12:36:08.974Z,20.76
2022-09-02T12:39:37.318Z,20.85
2022-09-02T12:42:46.720Z,20.92
2022-09-02T12:45:50.689Z,20.89
2022-09-02T12:49:14.259Z,20.88
2022-09-02T12:52:34.640Z,20.85
2022-09-02T12:55:38.112Z,20.91
2022-09-02T12:58:46.398Z,21.02
2022-09-02T13:02:00.263Z,21.03
2022-09-02T13:05:01.976Z,21.05
2022-09-02T13:08:41.658Z,21.05
2022-09-02T13:12:17.984Z,21.07
2022-09-02T13:15:29.032Z,21.10
2022-09-02T13:19:01.276Z,21.14
2022-09-02T13:22:31.366Z,21.21
2022-09-02T13:25:36.182Z,21.24
2022-09-02T13:29:30.363Z,21.33
2022-09-02T13:32:34.284Z,21.41
2022-09-02T13:40:25.162Z,21.74
2022-09-02T13:43:28.225Z,21.93
2022-09-02T13:47:23.268Z,22.10
2022-09-02T13:50:27.667Z,22.36
2022-09-02T13:53:49.114Z,22.64
2022-09-02T13:57:02.112Z,22.93
2022-09-02T14:00:05.361Z,23.23
2022-09-02T14:03:19.168Z,23.70
2022-09-02T14:06:26.217Z,24.14
2022-09-02T14:09:31.704Z,24.46
2022-09-02T14:12:36.508Z,24.69
2022-09-02T14:15:38.210Z,24.91
2022-09-02T14:18:39.931Z,25.17
2022-09-02T14:21:50.749Z,25.45
2022-09-02T14:24:52.891Z,25.62
2022-09-02T14:32:28.218Z,26.15
2022-09-02T14:35:32.299Z,26.32
2022-09-02T14:38:57.299Z,26.46
2022-09-02T14:41:59.019Z,26.65
2022-09-02T14:45:03.293Z,26.79
2022-09-02T14:52:59.657Z,27.04
2022-09-02T14:56:03.918Z,27.15
2022-09-02T14:59:05.586Z,27.26
2022-09-02T15:02:09.496Z,27.33
2022-09-02T15:05:16.587Z,27.38
2022-09-02T15:08:18.613Z,27.42
2022-09-02T15:11:21.232Z,27.50
2022-09-02T15:14:22.826Z,27.53
2022-09-02T15:17:24.892Z,27.62
2022-09-02T15:20:28.479Z,27.75
2022-09-02T15:23:34.647Z,27.97
2022-09-02T15:26:36.751Z,28.10
2022-09-02T15:29:39.581Z,28.18
2022-09-02T15:32:41.931Z,28.16
2022-09-02T15:35:43.629Z,28.13
2022-09-02T15:38:45.296Z,28.19
2022-09-02T15:41:50.340Z,28.24
2022-09-02T15:44:55.071Z,28.24
2022-09-02T15:47:59.795Z,28.19
2022-09-02T15:51:11.441Z,28.13
2022-09-02T15:54:16.568Z,28.03
2022-09-02T15:57:21.469Z,27.84
2022-09-02T16:00:27.796Z,27.86
2022-09-02T16:03:31.122Z,27.71
2022-09-02T16:06:45.303Z,27.55
2022-09-02T16:15:17.316Z,27.35
2022-09-02T16:17:19.829Z,27.11
2022-09-02T16:20:22.226Z,26.84
2022-09-02T16:23:24.594Z,26.51
2022-09-02T16:26:32.094Z,26.14
2022-09-02T16:29:37.150Z,25.83
2022-09-02T16:32:38.850Z,25.41
2022-09-02T16:35:41.697Z,25.11
2022-09-02T16:38:43.840Z,24.88
2022-09-02T16:41:48.605Z,24.60
2022-09-02T16:44:51.594Z,24.33
2022-09-02T16:47:55.944Z,24.05
2022-09-02T16:51:02.304Z,23.77
2022-09-02T16:54:04.903Z,23.51
2022-09-02T16:57:06.689Z,23.32
2022-09-02T17:00:10.340Z,23.15
2022-09-02T17:03:12.781Z,22.91
2022-09-02T17:06:17.371Z,22.75
2022-09-02T17:09:19.268Z,22.59
2022-09-02T17:12:23.179Z,22.44
2022-09-02T17:15:26.174Z,22.28
2022-09-02T17:18:35.598Z,22.13
2022-09-02T17:21:47.055Z,21.98
2022-09-02T17:24:53.535Z,21.76
2022-09-02T17:27:55.567Z,21.64
2022-09-02T17:30:59.314Z,21.52
2022-09-02T17:34:03.954Z,21.37
2022-09-02T17:37:06.180Z,21.22
2022-09-02T17:40:32.287Z,21.05
2022-09-02T17:43:34.149Z,20.88
2022-09-02T17:46:35.908Z,20.72
2022-09-02T17:49:41.297Z,20.58
2022-09-02T17:52:45.444Z,20.43
2022-09-02T17:55:52.629Z,20.37
2022-09-02T17:59:05.210Z,20.21
2022-09-02T18:02:25.470Z,20.07
2022-09-02T18:05:32.584Z,19.91
2022-09-02T18:08:56.342Z,19.78
2022-09-02T18:11:58.189Z,19.62
2022-09-02T18:15:02.253Z,19.46
2022-09-02T18:18:04.456Z,19.33
2022-09-02T18:21:19.743Z,19.18
2022-09-02T18:24:47.543Z,19.09
2022-09-02T18:28:10.501Z,18.95
2022-09-02T18:31:45.058Z,18.78
2022-09-02T18:35:05.008Z,18.67
2022-09-02T18:38:22.673Z,18.56
2022-09-02T18:41:24.379Z,18.46
2022-09-02T18:44:57.815Z,18.29
2022-09-02T18:48:08.355Z,18.17
2022-09-02T18:51:16.199Z,18.16
2022-09-02T18:54:25.328Z,18.07
2022-09-02T18:57:37.638Z,17.94
2022-09-02T19:00:48.357Z,17.85
2022-09-02T19:03:53.489Z,17.69
2022-09-02T19:07:15.174Z,17.69
2022-09-02T19:10:17.050Z,17.59
2022-09-02T19:13:20.255Z,17.53
2022-09-02T19:16:25.171Z,17.49
2022-09-02T19:19:29.685Z,17.37
2022-09-02T19:22:32.861Z,17.35
2022-09-02T19:25:36.555Z,17.31
2022-09-02T19:28:40.634Z,17.19
2022-09-02T19:31:45.023Z,17.17
2022-09-02T19:34:47.149Z,17.07
2022-09-02T19:37:52.961Z,17.06
2022-09-02T19:40:55.155Z,16.98
2022-09-02T19:43:59.388Z,16.90
2022-09-02T19:50:24.015Z,16.82
2022-09-02T19:53:30.461Z,16.77
2022-09-02T19:56:32.372Z,16.66
2022-09-02T19:59:34.186Z,16.64
2022-09-02T20:02:36.179Z,16.57
2022-09-02T20:05:38.779Z,16.48
2022-09-02T20:08:42.541Z,16.44
2022-09-02T20:11:44.309Z,16.37
2022-09-02T20:14:46.077Z,16.30
2022-09-02T20:17:48.090Z,16.24
2022-09-02T20:20:54.885Z,16.10
2022-09-02T20:24:06.849Z,16.13
2022-09-02T20:27:25.059Z,16.09
2022-09-02T20:30:33.069Z,15.99
2022-09-02T20:33:50.111Z,15.99
2022-09-02T20:37:05.167Z,15.94
2022-09-02T20:40:16.524Z,15.88
2022-09-02T20:43:36.968Z,15.84
2022-09-02T20:46:49.504Z,15.75
2022-09-02T20:50:03.692Z,15.76
2022-09-02T20:53:41.800Z,15.69
2022-09-02T20:57:21.202Z,15.68
2022-09-02T21:00:23.087Z,15.61
2022-09-02T21:03:25.993Z,15.59
2022-09-02T21:06:33.629Z,15.55
2022-09-02T21:09:45.474Z,15.56
2022-09-02T21:12:59.380Z,15.48
2022-09-02T21:16:09.105Z,15.51
2022-09-02T21:19:17.457Z,15.48
2022-09-02T21:22:28.429Z,15.43
2022-09-02T21:25:38.263Z,15.43
2022-09-02T21:28:53.423Z,15.42
2022-09-02T21:32:16.640Z,15.38
2022-09-02T21:35:41.066Z,15.33
2022-09-02T21:38:46.695Z,15.32
2022-09-02T21:42:11.522Z,15.24
2022-09-02T21:45:39.872Z,15.26
2022-09-02T21:49:01.096Z,15.23
2022-09-02T21:52:30.684Z,15.19
2022-09-02T21:55:54.331Z,15.17
2022-09-02T21:59:33.835Z,15.15
2022-09-02T22:02:48.665Z,15.14
2022-09-02T22:06:06.433Z,15.12
2022-09-02T22:09:14.373Z,15.10
2022-09-02T22:12:17.526Z,15.09
2022-09-02T22:15:34.621Z,15.09
2022-09-02T22:18:45.203Z,15.08
2022-09-02T22:21:51.258Z,15.05
2022-09-02T22:24:55.145Z,15.00
2022-09-02T22:28:07.041Z,15.08
2022-09-02T22:31:13.400Z,15.08
2022-09-02T22:34:17.960Z,15.03
2022-09-02T22:37:26.110Z,15.10
2022-09-02T22:40:32.614Z,15.04
2022-09-02T22:43:41.556Z,15.08
2022-09-02T22:47:11.395Z,15.16
2022-09-02T22:50:38.525Z,15.18
2022-09-02T22:53:40.516Z,15.18
2022-09-02T22:56:53.013Z,15.21
2022-09-02T23:00:04.465Z,15.19
2022-09-02T23:03:21.864Z,15.22
2022-09-02T23:06:30.265Z,15.22
2022-09-02T23:09:38.832Z,15.24
2022-09-02T23:12:48.595Z,15.28
2022-09-02T23:16:11.996Z,15.31
2022-09-02T23:19:26.148Z,15.32
2022-09-02T23:23:09.484Z,15.32
2022-09-02T23:26:22.998Z,15.34
2022-09-02T23:29:28.725Z,15.34
2022-09-02T23:32:49.320Z,15.35
2022-09-02T23:36:02.613Z,15.35
2022-09-02T23:39:46.327Z,15.37
2022-09-02T23:42:49.466Z,15.36
2022-09-02T23:45:56.033Z,15.32
2022-09-02T23:49:40.209Z,15.36
2022-09-02T23:52:50.955Z,15.37
2022-09-02T23:56:11.368Z,15.36
2022-09-02T23:59:44.020Z,15.37
